sensor_id;sensor_type;location;lat;lon;timestamp;pressure;altitude;pressure_sealevel;temperature;humidity
61474;BME280;53694;49.784;30.150;2022-12-07T02:03:58;99777.32;;;-3.79;100.00
61474;BME280;53694;49.784;30.150;2022-12-07T02:05:02;99777.02;;;-3.87;100.00
61474;BME280;53694;49.784;30.150;2022-12-07T02:06:05;99780.27;;;-3.85;100.00
61474;BME280;53694;49.784;30.150;2022-12-07T02:07:08;99776.53;;;-3.74;100.00
61474;BME280;53694;49.784;30.150;2022-12-07T02:08:10;99775.00;;;-3.49;100.00
61474;BME280;53694;49.784;30.150;2022-12-07T02:09:13;99763.78;;;-3.16;100.00
61474;BME280;53694;49.784;30.150;2022-12-07T02:10:22;99769.69;;;-2.73;99.89
61474;BME280;53694;49.784;30.150;2022-12-07T02:11:20;99768.27;;;-2.30;98.34
61474;BME280;53694;49.784;30.150;2022-12-07T02:12:24;99770.56;;;-1.87;96.00
61474;BME280;53694;49.784;30.150;2022-12-07T02:13:30;99765.02;;;-1.52;93.77
61474;BME280;53694;49.784;30.150;2022-12-07T02:14:30;99765.88;;;-1.17;91.92
61474;BME280;53694;49.784;30.150;2022-12-07T02:17:04;99770.20;;;-0.53;88.29
61474;BME280;53694;49.784;30.150;2022-12-07T02:18:19;99773.63;;;-0.18;85.92
61474;BME280;53694;49.784;30.150;2022-12-07T02:20:42;99770.63;;;0.32;80.69
61474;BME280;53694;49.784;30.150;2022-12-07T02:21:51;99770.71;;;0.45;79.04
61474;BME280;53694;49.784;30.150;2022-12-07T02:23:13;99767.28;;;0.59;78.02
61474;BME280;53694;49.784;30.150;2022-12-07T02:24:30;99767.38;;;0.72;76.71
61474;BME280;53694;49.784;30.150;2022-12-07T02:27:23;99763.47;;;0.97;74.44
61474;BME280;53694;49.784;30.150;2022-12-07T02:28:28;99762.80;;;1.06;73.58
61474;BME280;53694;49.784;30.150;2022-12-07T02:31:10;99761.77;;;1.20;71.59
61474;BME280;53694;49.784;30.150;2022-12-07T02:32:25;99757.59;;;1.28;71.71
61474;BME280;53694;49.784;30.150;2022-12-07T02:33:42;99759.41;;;1.33;71.03
61474;BME280;53694;49.784;30.150;2022-12-07T02:35:04;99753.59;;;1.39;70.86
61474;BME280;53694;49.784;30.150;2022-12-07T02:36:07;99757.31;;;1.43;70.37
61474;BME280;53694;49.784;30.150;2022-12-07T02:38:35;99755.52;;;1.53;70.04
61474;BME280;53694;49.784;30.150;2022-12-07T02:40:54;99752.13;;;1.61;69.65
61474;BME280;53694;49.784;30.150;2022-12-07T02:42:01;99746.71;;;1.61;69.16
61474;BME280;53694;49.784;30.150;2022-12-07T02:43:12;99750.79;;;1.44;68.85
61474;BME280;53694;49.784;30.150;2022-12-07T02:44:17;99746.92;;;1.18;69.48
61474;BME280;53694;49.784;30.150;2022-12-07T02:45:21;99751.08;;;0.78;70.41
61474;BME280;53694;49.784;30.150;2022-12-07T02:47:01;99744.88;;;0.39;71.94
61474;BME280;53694;49.784;30.150;2022-12-07T02:47:36;99757.77;;;-0.01;72.87
61474;BME280;53694;49.784;30.150;2022-12-07T02:48:39;99742.78;;;-0.36;74.34
61474;BME280;53694;49.784;30.150;2022-12-07T02:49:42;99749.91;;;-0.45;75.35
61474;BME280;53694;49.784;30.150;2022-12-07T02:50:50;99740.89;;;-0.35;75.93
61474;BME280;53694;49.784;30.150;2022-12-07T02:51:49;99742.03;;;-0.17;76.06
61474;BME280;53694;49.784;30.150;2022-12-07T02:52:50;99745.03;;;0.05;75.62
61474;BME280;53694;49.784;30.150;2022-12-07T02:53:52;99742.59;;;0.28;74.90
61474;BME280;53694;49.784;30.150;2022-12-07T02:54:53;99740.49;;;0.43;73.70
61474;BME280;53694;49.784;30.150;2022-12-07T02:55:55;99742.69;;;0.60;73.53
61474;BME280;53694;49.784;30.150;2022-12-07T02:57:12;99741.06;;;0.78;73.15
61474;BME280;53694;49.784;30.150;2022-12-07T02:58:20;99737.31;;;0.93;72.56
61474;BME280;53694;49.784;30.150;2022-12-07T03:00:29;99737.30;;;1.12;71.52
61474;BME280;53694;49.784;30.150;2022-12-07T03:02:59;99728.84;;;1.32;70.70
61474;BME280;53694;49.784;30.150;2022-12-07T03:08:47;99739.60;;;1.65;68.72
61474;BME280;53694;49.784;30.150;2022-12-07T03:11:08;99732.84;;;1.35;69.47
61474;BME280;53694;49.784;30.150;2022-12-07T03:12:17;99734.73;;;1.02;70.05
61474;BME280;53694;49.784;30.150;2022-12-07T03:14:49;99735.53;;;0.08;72.05
61474;BME280;53694;49.784;30.150;2022-12-07T03:17:17;99731.70;;;-0.34;74.80
61474;BME280;53694;49.784;30.150;2022-12-07T03:18:18;99735.10;;;-0.23;75.16
61474;BME280;53694;49.784;30.150;2022-12-07T03:19:22;99733.04;;;-0.08;74.74
61474;BME280;53694;49.784;30.150;2022-12-07T03:20:27;99728.47;;;0.12;74.47
61474;BME280;53694;49.784;30.150;2022-12-07T03:21:37;99722.80;;;0.32;74.13
61474;BME280;53694;49.784;30.150;2022-12-07T03:22:40;99718.50;;;0.50;73.51
61474;BME280;53694;49.784;30.150;2022-12-07T03:23:46;99724.41;;;0.71;73.06
61474;BME280;53694;49.784;30.150;2022-12-07T03:24:55;99723.88;;;0.88;72.27
61474;BME280;53694;49.784;30.150;2022-12-07T03:25:59;99716.70;;;0.97;71.42
61474;BME280;53694;49.784;30.150;2022-12-07T03:27:10;99714.34;;;1.09;71.20
61474;BME280;53694;49.784;30.150;2022-12-07T03:28:15;99721.41;;;1.24;70.76
61474;BME280;53694;49.784;30.150;2022-12-07T03:29:21;99712.09;;;1.30;70.24
61474;BME280;53694;49.784;30.150;2022-12-07T03:30:29;99710.02;;;1.41;70.08
61474;BME280;53694;49.784;30.150;2022-12-07T03:31:33;99705.20;;;1.52;69.31
61474;BME280;53694;49.784;30.150;2022-12-07T03:33:55;99715.13;;;1.70;68.51
61474;BME280;53694;49.784;30.150;2022-12-07T03:35:21;99703.92;;;1.63;68.10
61474;BME280;53694;49.784;30.150;2022-12-07T03:38:55;99697.81;;;0.59;70.65
61474;BME280;53694;49.784;30.150;2022-12-07T03:40:10;99693.89;;;0.14;71.71
61474;BME280;53694;49.784;30.150;2022-12-07T03:41:14;99694.38;;;-0.27;73.19
61474;BME280;53694;49.784;30.150;2022-12-07T03:42:16;99701.45;;;-0.55;74.71
61474;BME280;53694;49.784;30.150;2022-12-07T03:43:18;99701.22;;;-0.59;75.46
61474;BME280;53694;49.784;30.150;2022-12-07T03:44:20;99693.80;;;-0.48;75.88
61474;BME280;53694;49.784;30.150;2022-12-07T03:45:27;99696.77;;;-0.02;75.55
61474;BME280;53694;49.784;30.150;2022-12-07T03:46:44;99696.77;;;-0.02;75.55
61474;BME280;53694;49.784;30.150;2022-12-07T03:49:06;99692.72;;;0.58;73.70
61474;BME280;53694;49.784;30.150;2022-12-07T03:50:08;99685.81;;;0.84;72.96
61474;BME280;53694;49.784;30.150;2022-12-07T03:51:26;99684.89;;;1.08;72.12
61474;BME280;53694;49.784;30.150;2022-12-07T03:52:39;99688.32;;;1.27;71.49
61474;BME280;53694;49.784;30.150;2022-12-07T03:54:59;99682.27;;;1.63;69.62
61474;BME280;53694;49.784;30.150;2022-12-07T03:56:01;99686.98;;;1.71;68.80
61474;BME280;53694;49.784;30.150;2022-12-07T03:57:04;99675.35;;;1.70;68.08
61474;BME280;53694;49.784;30.150;2022-12-07T03:58:13;99680.95;;;1.60;68.29
61474;BME280;53694;49.784;30.150;2022-12-07T03:59:13;99676.92;;;1.44;68.81
61474;BME280;53694;49.784;30.150;2022-12-07T04:00:15;99675.30;;;1.15;69.42
61474;BME280;53694;49.784;30.150;2022-12-07T04:01:18;99675.61;;;0.81;70.22
61474;BME280;53694;49.784;30.150;2022-12-07T04:02:19;99671.84;;;0.44;71.22
61474;BME280;53694;49.784;30.150;2022-12-07T04:03:21;99673.42;;;0.08;72.36
61474;BME280;53694;49.784;30.150;2022-12-07T04:04:24;99670.83;;;-0.21;73.53
61474;BME280;53694;49.784;30.150;2022-12-07T04:05:26;99670.16;;;-0.32;74.33
61474;BME280;53694;49.784;30.150;2022-12-07T04:06:28;99675.55;;;-0.32;74.81
61474;BME280;53694;49.784;30.150;2022-12-07T04:07:30;99676.45;;;-0.18;75.18
61474;BME280;53694;49.784;30.150;2022-12-07T04:08:31;99654.14;;;-0.05;74.84
61474;BME280;53694;49.784;30.150;2022-12-07T04:09:33;99667.25;;;0.26;74.45
61474;BME280;53694;49.784;30.150;2022-12-07T04:10:35;99664.75;;;0.48;73.85
61474;BME280;53694;49.784;30.150;2022-12-07T04:11:37;99661.12;;;0.72;73.20
61474;BME280;53694;49.784;30.150;2022-12-07T04:12:39;99661.91;;;0.91;72.38
61474;BME280;53694;49.784;30.150;2022-12-07T04:13:40;99663.84;;;1.05;71.63
61474;BME280;53694;49.784;30.150;2022-12-07T04:14:42;99660.88;;;1.20;71.21
61474;BME280;53694;49.784;30.150;2022-12-07T04:15:44;99661.69;;;1.34;70.54
61474;BME280;53694;49.784;30.150;2022-12-07T04:16:52;99656.06;;;1.44;69.68
61474;BME280;53694;49.784;30.150;2022-12-07T04:17:54;99653.29;;;1.49;69.35
61474;BME280;53694;49.784;30.150;2022-12-07T04:18:55;99665.61;;;1.56;68.92
61474;BME280;53694;49.784;30.150;2022-12-07T04:19:57;99662.90;;;1.56;68.99
61474;BME280;53694;49.784;30.150;2022-12-07T04:20:59;99654.27;;;1.40;68.87
61474;BME280;53694;49.784;30.150;2022-12-07T04:22:03;99652.13;;;1.09;69.27
61474;BME280;53694;49.784;30.150;2022-12-07T04:23:05;99651.33;;;0.76;70.15
61474;BME280;53694;49.784;30.150;2022-12-07T04:24:06;99654.69;;;0.35;71.35
61474;BME280;53694;49.784;30.150;2022-12-07T04:25:09;99652.28;;;-0.04;72.57
61474;BME280;53694;49.784;30.150;2022-12-07T04:26:11;99646.17;;;-0.34;73.93
61474;BME280;53694;49.784;30.150;2022-12-07T04:27:12;99649.77;;;-0.43;74.88
61474;BME280;53694;49.784;30.150;2022-12-07T04:28:14;99658.91;;;-0.39;75.29
61474;BME280;53694;49.784;30.150;2022-12-07T04:29:16;99645.23;;;-0.24;75.38
61474;BME280;53694;49.784;30.150;2022-12-07T04:30:18;99649.77;;;-0.01;75.01
61474;BME280;53694;49.784;30.150;2022-12-07T04:31:19;99645.12;;;0.24;74.50
61474;BME280;53694;49.784;30.150;2022-12-07T04:32:22;99633.22;;;0.44;73.43
61474;BME280;53694;49.784;30.150;2022-12-07T04:33:24;99644.29;;;0.61;72.71
61474;BME280;53694;49.784;30.150;2022-12-07T04:34:26;99644.05;;;0.77;72.19
61474;BME280;53694;49.784;30.150;2022-12-07T04:35:27;99640.18;;;0.96;71.93
61474;BME280;53694;49.784;30.150;2022-12-07T04:36:30;99633.71;;;1.11;71.30
61474;BME280;53694;49.784;30.150;2022-12-07T04:37:32;99638.03;;;1.26;70.59
61474;BME280;53694;49.784;30.150;2022-12-07T04:38:33;99633.45;;;1.40;70.34
61474;BME280;53694;49.784;30.150;2022-12-07T04:39:35;99639.75;;;1.49;69.09
61474;BME280;53694;49.784;30.150;2022-12-07T04:40:37;99642.84;;;1.57;69.04
61474;BME280;53694;49.784;30.150;2022-12-07T04:41:38;99641.66;;;1.63;68.65
61474;BME280;53694;49.784;30.150;2022-12-07T04:42:40;99643.84;;;1.61;68.43
61474;BME280;53694;49.784;30.150;2022-12-07T04:43:41;99637.95;;;1.45;68.50
61474;BME280;53694;49.784;30.150;2022-12-07T04:44:43;99629.49;;;1.19;68.95
61474;BME280;53694;49.784;30.150;2022-12-07T04:45:48;99638.25;;;0.83;69.80
61474;BME280;53694;49.784;30.150;2022-12-07T04:46:50;99635.92;;;0.44;70.72
61474;BME280;53694;49.784;30.150;2022-12-07T04:47:52;99636.80;;;0.02;72.08
61474;BME280;53694;49.784;30.150;2022-12-07T04:48:53;99643.74;;;-0.35;73.48
61474;BME280;53694;49.784;30.150;2022-12-07T04:49:55;99634.58;;;-0.58;74.79
61474;BME280;53694;49.784;30.150;2022-12-07T04:50:57;99639.80;;;-0.67;75.53
61474;BME280;53694;49.784;30.150;2022-12-07T04:51:58;99622.76;;;-0.62;75.93
61474;BME280;53694;49.784;30.150;2022-12-07T04:53:00;99632.55;;;-0.47;76.10
61474;BME280;53694;49.784;30.150;2022-12-07T04:54:01;99629.61;;;-0.27;75.82
61474;BME280;53694;49.784;30.150;2022-12-07T04:55:04;99627.98;;;-0.04;75.23
61474;BME280;53694;49.784;30.150;2022-12-07T04:56:06;99630.31;;;0.21;74.61
61474;BME280;53694;49.784;30.150;2022-12-07T04:57:08;99621.83;;;0.47;73.97
61474;BME280;53694;49.784;30.150;2022-12-07T04:58:10;99631.70;;;0.70;73.04
61474;BME280;53694;49.784;30.150;2022-12-07T04:59:13;99627.34;;;0.88;72.03
61474;BME280;53694;49.784;30.150;2022-12-07T05:00:16;99627.08;;;1.04;71.36
61474;BME280;53694;49.784;30.150;2022-12-07T05:01:18;99631.12;;;1.20;70.99
61474;BME280;53694;49.784;30.150;2022-12-07T05:02:20;99619.39;;;1.38;70.58
61474;BME280;53694;49.784;30.150;2022-12-07T05:03:21;99626.43;;;1.53;69.77
61474;BME280;53694;49.784;30.150;2022-12-07T05:04:23;99619.20;;;1.62;69.01
61474;BME280;53694;49.784;30.150;2022-12-07T05:05:25;99622.28;;;1.69;68.52
61474;BME280;53694;49.784;30.150;2022-12-07T05:06:26;99623.70;;;1.67;68.32
61474;BME280;53694;49.784;30.150;2022-12-07T05:07:28;99622.61;;;1.54;68.60
61474;BME280;53694;49.784;30.150;2022-12-07T05:08:30;99627.10;;;1.31;69.05
61474;BME280;53694;49.784;30.150;2022-12-07T05:09:31;99625.48;;;1.03;69.65
61474;BME280;53694;49.784;30.150;2022-12-07T05:10:33;99628.51;;;0.68;70.31
61474;BME280;53694;49.784;30.150;2022-12-07T05:11:34;99639.36;;;0.31;71.22
61474;BME280;53694;49.784;30.150;2022-12-07T05:12:36;99628.55;;;-0.07;72.39
61474;BME280;53694;49.784;30.150;2022-12-07T05:13:37;99634.55;;;-0.34;73.55
61474;BME280;53694;49.784;30.150;2022-12-07T05:14:39;99633.31;;;-0.42;74.46
61474;BME280;53694;49.784;30.150;2022-12-07T05:15:41;99634.84;;;-0.36;74.80
61474;BME280;53694;49.784;30.150;2022-12-07T05:16:44;99631.17;;;-0.21;74.77
61474;BME280;53694;49.784;30.150;2022-12-07T05:17:45;99630.30;;;0.03;74.61
61474;BME280;53694;49.784;30.150;2022-12-07T05:18:47;99625.05;;;0.30;74.11
61474;BME280;53694;49.784;30.150;2022-12-07T05:19:49;99619.25;;;0.56;73.26
61474;BME280;53694;49.784;30.150;2022-12-07T05:20:50;99626.94;;;0.81;72.55
61474;BME280;53694;49.784;30.150;2022-12-07T05:21:52;99623.58;;;1.03;71.52
61474;BME280;53694;49.784;30.150;2022-12-07T05:22:54;99627.30;;;1.21;70.68
61474;BME280;53694;49.784;30.150;2022-12-07T05:23:55;99629.73;;;1.36;70.23
61474;BME280;53694;49.784;30.150;2022-12-07T05:24:57;99627.23;;;1.54;69.54
61474;BME280;53694;49.784;30.150;2022-12-07T05:25:58;99627.53;;;1.66;68.78
61474;BME280;53694;49.784;30.150;2022-12-07T05:27:00;99631.41;;;1.73;68.28
61474;BME280;53694;49.784;30.150;2022-12-07T05:28:02;99629.50;;;1.74;67.70
61474;BME280;53694;49.784;30.150;2022-12-07T05:29:04;99626.01;;;1.60;67.85
61474;BME280;53694;49.784;30.150;2022-12-07T05:30:07;99625.40;;;1.35;68.45
61474;BME280;53694;49.784;30.150;2022-12-07T05:31:09;99623.06;;;1.01;68.80
61474;BME280;53694;49.784;30.150;2022-12-07T05:32:11;99622.89;;;0.65;69.93
61474;BME280;53694;49.784;30.150;2022-12-07T05:33:12;99626.13;;;0.29;70.96
61474;BME280;53694;49.784;30.150;2022-12-07T05:34:14;99629.35;;;-0.07;72.16
61474;BME280;53694;49.784;30.150;2022-12-07T05:35:16;99630.81;;;-0.38;73.45
61474;BME280;53694;49.784;30.150;2022-12-07T05:36:18;99635.95;;;-0.61;74.51
61474;BME280;53694;49.784;30.150;2022-12-07T05:37:20;99632.81;;;-0.68;75.26
61474;BME280;53694;49.784;30.150;2022-12-07T05:38:22;99630.28;;;-0.59;75.58
61474;BME280;53694;49.784;30.150;2022-12-07T05:39:23;99634.11;;;-0.41;75.53
61474;BME280;53694;49.784;30.150;2022-12-07T05:40:25;99627.06;;;-0.18;75.26
61474;BME280;53694;49.784;30.150;2022-12-07T05:41:27;99622.42;;;0.06;74.54
61474;BME280;53694;49.784;30.150;2022-12-07T05:42:28;99627.15;;;0.33;73.75
61474;BME280;53694;49.784;30.150;2022-12-07T05:43:30;99631.66;;;0.57;72.78
61474;BME280;53694;49.784;30.150;2022-12-07T05:44:32;99643.75;;;0.78;72.13
61474;BME280;53694;49.784;30.150;2022-12-07T05:45:34;99629.88;;;0.98;71.25
61474;BME280;53694;49.784;30.150;2022-12-07T05:46:35;99629.59;;;1.14;70.47
61474;BME280;53694;49.784;30.150;2022-12-07T05:47:37;99625.50;;;1.30;70.21
61474;BME280;53694;49.784;30.150;2022-12-07T05:48:38;99631.71;;;1.44;69.76
61474;BME280;53694;49.784;30.150;2022-12-07T05:49:40;99613.88;;;1.43;68.77
61474;BME280;53694;49.784;30.150;2022-12-07T05:50:42;99634.44;;;1.58;68.40
61474;BME280;53694;49.784;30.150;2022-12-07T05:51:43;99633.02;;;1.61;68.65
61474;BME280;53694;49.784;30.150;2022-12-07T05:52:45;99635.83;;;1.56;68.91
61474;BME280;53694;49.784;30.150;2022-12-07T05:53:46;99636.22;;;1.35;68.96
61474;BME280;53694;49.784;30.150;2022-12-07T05:54:48;99634.61;;;1.07;69.50
61474;BME280;53694;49.784;30.150;2022-12-07T10:19:35;99518.01;;;-1.22;100.00
61474;BME280;53694;49.784;30.150;2022-12-07T10:20:37;99519.43;;;-1.30;100.00
61474;BME280;53694;49.784;30.150;2022-12-07T10:23:04;99510.36;;;-1.15;100.00
61474;BME280;53694;49.784;30.150;2022-12-07T10:24:14;99506.80;;;-0.86;100.00
61474;BME280;53694;49.784;30.150;2022-12-07T10:25:19;99515.09;;;-0.40;98.94
61474;BME280;53694;49.784;30.150;2022-12-07T10:27:36;99506.25;;;0.58;95.24
61474;BME280;53694;49.784;30.150;2022-12-07T10:28:38;99502.57;;;1.09;92.47
61474;BME280;53694;49.784;30.150;2022-12-07T10:29:40;99500.42;;;1.47;89.76
61474;BME280;53694;49.784;30.150;2022-12-07T10:32:21;99496.99;;;2.14;85.42
61474;BME280;53694;49.784;30.150;2022-12-07T10:34:35;99498.48;;;2.82;81.53
61474;BME280;53694;49.784;30.150;2022-12-07T10:35:42;99496.36;;;3.10;78.95
61474;BME280;53694;49.784;30.150;2022-12-07T10:36:42;99493.20;;;3.34;77.51
61474;BME280;53694;49.784;30.150;2022-12-07T10:37:44;99496.29;;;3.59;75.78
61474;BME280;53694;49.784;30.150;2022-12-07T10:38:52;99499.81;;;3.85;74.34
61474;BME280;53694;49.784;30.150;2022-12-07T10:39:55;99506.67;;;4.26;71.93
61474;BME280;53694;49.784;30.150;2022-12-07T10:41:09;99506.67;;;4.26;71.93
61474;BME280;53694;49.784;30.150;2022-12-07T10:42:16;99502.45;;;4.46;70.65
61474;BME280;53694;49.784;30.150;2022-12-07T10:43:18;99506.56;;;4.69;69.53
61474;BME280;53694;49.784;30.150;2022-12-07T10:44:32;99502.50;;;4.93;67.98
61474;BME280;53694;49.784;30.150;2022-12-07T10:45:35;99500.63;;;5.14;67.40
61474;BME280;53694;49.784;30.150;2022-12-07T10:46:51;99502.83;;;5.21;66.16
61474;BME280;53694;49.784;30.150;2022-12-07T10:52:08;99492.41;;;3.34;69.61
61474;BME280;53694;49.784;30.150;2022-12-07T11:02:23;99486.80;;;3.21;73.79
61474;BME280;53694;49.784;30.150;2022-12-07T11:03:40;99486.86;;;3.73;72.09
61474;BME280;53694;49.784;30.150;2022-12-07T11:06:49;99488.55;;;4.47;68.00
61474;BME280;53694;49.784;30.150;2022-12-07T11:07:56;99491.56;;;4.63;66.94
61474;BME280;53694;49.784;30.150;2022-12-07T11:11:50;99481.42;;;3.82;67.72
61474;BME280;53694;49.784;30.150;2022-12-07T11:16:13;99482.89;;;2.25;72.95
61474;BME280;53694;49.784;30.150;2022-12-07T11:20:03;99472.68;;;1.41;77.85
61474;BME280;53694;49.784;30.150;2022-12-07T11:21:24;99472.23;;;1.62;78.29
61474;BME280;53694;49.784;30.150;2022-12-07T11:37:23;99494.38;;;3.94;68.92
61474;BME280;53694;49.784;30.150;2022-12-07T11:38:53;99489.27;;;3.66;69.57
61474;BME280;53694;49.784;30.150;2022-12-07T11:39:54;99503.91;;;2.82;71.23
61474;BME280;53694;49.784;30.150;2022-12-07T11:40:59;99503.91;;;2.82;71.23
61474;BME280;53694;49.784;30.150;2022-12-07T11:42:09;99487.11;;;2.40;72.89
61474;BME280;53694;49.784;30.150;2022-12-07T11:43:31;99488.36;;;2.12;74.22
61474;BME280;53694;49.784;30.150;2022-12-07T11:44:52;99490.59;;;2.10;76.05
61474;BME280;53694;49.784;30.150;2022-12-07T11:48:46;99482.61;;;2.67;75.15
61474;BME280;53694;49.784;30.150;2022-12-07T11:50:14;99487.08;;;3.03;74.19
61474;BME280;53694;49.784;30.150;2022-12-07T11:51:13;99495.45;;;3.32;72.76
61474;BME280;53694;49.784;30.150;2022-12-07T11:52:24;99477.44;;;3.54;71.41
61474;BME280;53694;49.784;30.150;2022-12-07T11:53:37;99488.15;;;3.67;70.78
61474;BME280;53694;49.784;30.150;2022-12-07T11:54:40;99489.11;;;3.80;70.54
61474;BME280;53694;49.784;30.150;2022-12-07T11:57:33;99488.78;;;4.16;68.84
61474;BME280;53694;49.784;30.150;2022-12-07T11:59:45;99481.27;;;4.13;68.58
61474;BME280;53694;49.784;30.150;2022-12-07T12:00:47;99487.02;;;3.60;69.28
61474;BME280;53694;49.784;30.150;2022-12-07T12:02:00;99487.02;;;3.60;69.28
61474;BME280;53694;49.784;30.150;2022-12-07T12:03:09;99478.81;;;3.16;70.37
61474;BME280;53694;49.784;30.150;2022-12-07T12:05:21;99492.34;;;2.37;73.47
61474;BME280;53694;49.784;30.150;2022-12-07T12:06:22;99484.05;;;2.11;74.78
61474;BME280;53694;49.784;30.150;2022-12-07T12:07:26;99487.50;;;2.03;75.77
61474;BME280;53694;49.784;30.150;2022-12-07T12:08:31;99489.28;;;2.07;76.07
61474;BME280;53694;49.784;30.150;2022-12-07T12:09:43;99489.84;;;2.18;76.10
61474;BME280;53694;49.784;30.150;2022-12-07T12:10:59;99488.04;;;2.36;76.12
61474;BME280;53694;49.784;30.150;2022-12-07T12:12:16;99490.41;;;2.60;75.44
61474;BME280;53694;49.784;30.150;2022-12-07T12:13:23;99489.73;;;2.85;74.70
61474;BME280;53694;49.784;30.150;2022-12-07T12:16:50;99477.27;;;3.50;72.34
61474;BME280;53694;49.784;30.150;2022-12-07T12:19:30;99472.66;;;3.76;71.40
61474;BME280;53694;49.784;30.150;2022-12-07T12:20:41;99471.53;;;4.04;70.28
61474;BME280;53694;49.784;30.150;2022-12-07T12:21:46;99471.53;;;4.04;70.28
61474;BME280;53694;49.784;30.150;2022-12-07T12:24:12;99470.20;;;4.27;69.61
61474;BME280;53694;49.784;30.150;2022-12-07T12:26:33;99467.98;;;4.29;68.88
61474;BME280;53694;49.784;30.150;2022-12-07T12:27:38;99473.13;;;4.05;69.04
61474;BME280;53694;49.784;30.150;2022-12-07T12:28:52;99470.89;;;3.72;69.99
61474;BME280;53694;49.784;30.150;2022-12-07T12:29:56;99474.05;;;3.39;70.73
61474;BME280;53694;49.784;30.150;2022-12-07T12:31:12;99481.91;;;2.92;72.04
61474;BME280;53694;49.784;30.150;2022-12-07T12:32:30;99481.91;;;2.53;73.47
61474;BME280;53694;49.784;30.150;2022-12-07T12:33:29;99478.69;;;2.19;74.97
61474;BME280;53694;49.784;30.150;2022-12-07T12:35:37;99483.63;;;2.17;76.64
61474;BME280;53694;49.784;30.150;2022-12-07T12:36:45;99484.86;;;2.34;76.58
61474;BME280;53694;49.784;30.150;2022-12-07T12:37:47;99480.80;;;2.54;76.39
61474;BME280;53694;49.784;30.150;2022-12-07T12:42:48;99476.64;;;3.44;73.68
61474;BME280;53694;49.784;30.150;2022-12-07T12:43:50;99472.97;;;3.92;72.72
61474;BME280;53694;49.784;30.150;2022-12-07T12:45:25;99472.97;;;3.92;72.72
61474;BME280;53694;49.784;30.150;2022-12-07T12:47:51;99475.67;;;4.10;70.70
61474;BME280;53694;49.784;30.150;2022-12-07T12:48:46;99472.94;;;4.18;70.36
61474;BME280;53694;49.784;30.150;2022-12-07T12:50:12;99468.13;;;4.24;69.89
61474;BME280;53694;49.784;30.150;2022-12-07T12:51:36;99461.25;;;4.26;69.71
61474;BME280;53694;49.784;30.150;2022-12-07T12:53:43;99471.48;;;4.30;69.67
61474;BME280;53694;49.784;30.150;2022-12-07T12:57:33;99470.24;;;3.40;71.52
61474;BME280;53694;49.784;30.150;2022-12-07T12:58:38;99469.00;;;2.89;72.90
61474;BME280;53694;49.784;30.150;2022-12-07T13:02:38;99470.70;;;2.45;76.02
61474;BME280;53694;49.784;30.150;2022-12-07T13:03:53;99470.45;;;2.95;75.82
61474;BME280;53694;49.784;30.150;2022-12-07T13:05:14;99470.45;;;2.95;75.82
61474;BME280;53694;49.784;30.150;2022-12-07T13:08:50;99472.19;;;3.83;73.41
61474;BME280;53694;49.784;30.150;2022-12-07T13:09:53;99469.28;;;4.06;72.42
61474;BME280;53694;49.784;30.150;2022-12-07T13:10:57;99465.41;;;4.24;71.69
61474;BME280;53694;49.784;30.150;2022-12-07T13:12:12;99474.34;;;4.33;70.83
61474;BME280;53694;49.784;30.150;2022-12-07T13:18:36;99469.83;;;4.55;69.04
61474;BME280;53694;49.784;30.150;2022-12-07T13:20:52;99469.46;;;3.92;70.41
61474;BME280;53694;49.784;30.150;2022-12-07T13:21:54;99470.42;;;3.53;71.30
61474;BME280;53694;49.784;30.150;2022-12-07T13:22:58;99483.09;;;3.09;72.41
61474;BME280;53694;49.784;30.150;2022-12-07T13:24:00;99482.83;;;2.79;73.90
61474;BME280;53694;49.784;30.150;2022-12-07T13:26:38;99476.39;;;2.66;75.31
61474;BME280;53694;49.784;30.150;2022-12-07T13:27:43;99477.58;;;2.83;75.55
61474;BME280;53694;49.784;30.150;2022-12-07T13:29:56;99480.91;;;3.28;74.68
61474;BME280;53694;49.784;30.150;2022-12-07T13:32:25;99478.88;;;3.60;73.54
61474;BME280;53694;49.784;30.150;2022-12-07T13:33:29;99485.27;;;3.81;73.12
61474;BME280;53694;49.784;30.150;2022-12-07T13:34:36;99485.59;;;3.97;72.75
61474;BME280;53694;49.784;30.150;2022-12-07T13:35:38;99489.72;;;4.12;72.11
61474;BME280;53694;49.784;30.150;2022-12-07T13:36:43;99491.00;;;4.23;71.23
61474;BME280;53694;49.784;30.150;2022-12-07T13:37:45;99487.95;;;4.24;70.58
61474;BME280;53694;49.784;30.150;2022-12-07T13:38:59;99492.11;;;4.31;70.48
61474;BME280;53694;49.784;30.150;2022-12-07T13:40:18;99493.36;;;4.33;70.30
61474;BME280;53694;49.784;30.150;2022-12-07T13:41:27;99492.09;;;4.39;70.07
61474;BME280;53694;49.784;30.150;2022-12-07T13:42:29;99492.09;;;4.39;70.07
61474;BME280;53694;49.784;30.150;2022-12-07T13:43:31;99488.86;;;4.46;70.04
61474;BME280;53694;49.784;30.150;2022-12-07T13:44:34;99495.59;;;4.48;69.67
61474;BME280;53694;49.784;30.150;2022-12-07T13:45:37;99494.45;;;4.49;69.56
61474;BME280;53694;49.784;30.150;2022-12-07T13:48:05;99481.08;;;4.27;69.84
61474;BME280;53694;49.784;30.150;2022-12-07T13:49:29;99481.08;;;4.27;69.84
61474;BME280;53694;49.784;30.150;2022-12-07T13:50:31;99481.59;;;3.94;70.28
61474;BME280;53694;49.784;30.150;2022-12-07T13:51:34;99486.05;;;3.47;71.56
61474;BME280;53694;49.784;30.150;2022-12-07T13:52:43;99481.00;;;3.06;72.67
61474;BME280;53694;49.784;30.150;2022-12-07T13:53:55;99486.30;;;2.71;74.15
61474;BME280;53694;49.784;30.150;2022-12-07T13:55:08;99487.52;;;2.56;75.36
61474;BME280;53694;49.784;30.150;2022-12-07T13:56:12;99481.16;;;2.61;76.08
61474;BME280;53694;49.784;30.150;2022-12-07T13:57:10;99480.59;;;2.72;76.16
61474;BME280;53694;49.784;30.150;2022-12-07T13:58:12;99472.52;;;2.90;76.09
61474;BME280;53694;49.784;30.150;2022-12-07T13:59:17;99472.23;;;3.09;75.78
61474;BME280;53694;49.784;30.150;2022-12-07T14:00:21;99467.34;;;3.28;74.83
61474;BME280;53694;49.784;30.150;2022-12-07T18:02:47;99456.17;;;-0.52;100.00
61474;BME280;53694;49.784;30.150;2022-12-07T18:03:49;99456.33;;;-0.62;100.00
61474;BME280;53694;49.784;30.150;2022-12-07T18:04:51;99460.05;;;-0.58;100.00